Time;durP1;ratioP1;P1;durP2;ratioP2;P2;SDS_P1;SDS_P2;PMS_P1;PMS_P2;Temp;Humidity;BMP_temperature;BMP_pressure;BME280_temperature;BME280_humidity;BME280_pressure;Samples;Min_cycle;Max_cycle;Signal;HPM_P1;HPM_P2
2022/07/01 00:02:19;;;;;;;1.52;0.68;;;19.40;99.90;;;;;;7392093;19;20148;-77
2022/07/01 00:04:45;;;;;;;3.38;0.77;;;19.30;99.90;;;;;;7385769;19;20139;-76
2022/07/01 00:07:11;;;;;;;3.47;1.00;;;19.40;99.90;;;;;;7385680;19;20246;-78
2022/07/01 00:09:38;;;;;;;1.40;0.88;;;19.40;99.90;;;;;;7390641;19;20142;-78
2022/07/01 00:12:05;;;;;;;3.15;0.80;;;19.30;99.90;;;;;;7391498;19;20130;-78
2022/07/01 00:14:31;;;;;;;1.85;0.68;;;19.20;99.90;;;;;;7391457;19;20158;-76
2022/07/01 00:16:57;;;;;;;2.15;0.93;;;19.20;99.90;;;;;;7387319;19;20507;-77
2022/07/01 00:19:24;;;;;;;2.17;0.80;;;19.20;99.90;;;;;;7390132;19;20138;-77
2022/07/01 00:21:51;;;;;;;1.83;0.50;;;19.10;99.90;;;;;;7382304;19;20176;-76
2022/07/01 00:24:17;;;;;;;0.80;0.50;;;19.00;99.90;;;;;;7388682;19;20169;-77
2022/07/01 00:26:43;;;;;;;2.13;0.77;;;19.00;99.90;;;;;;7389640;19;20163;-77
2022/07/01 00:29:09;;;;;;;1.45;0.60;;;18.90;99.90;;;;;;7386170;19;20143;-77
2022/07/01 00:31:35;;;;;;;1.88;0.68;;;19.00;99.90;;;;;;7388428;19;20143;-77
2022/07/01 00:34:01;;;;;;;2.58;0.40;;;18.90;99.90;;;;;;7386003;19;20150;-78
2022/07/01 00:36:28;;;;;;;1.30;0.47;;;19.00;99.90;;;;;;7391275;19;20142;-76
2022/07/01 00:38:53;;;;;;;1.05;0.43;;;19.00;99.90;;;;;;7391363;19;20539;-77
2022/07/01 00:41:19;;;;;;;0.73;0.40;;;19.10;99.90;;;;;;7391979;19;20168;-76
2022/07/01 00:43:45;;;;;;;0.70;0.60;;;19.00;99.90;;;;;;7394274;19;20146;-76
2022/07/01 00:46:11;;;;;;;1.10;0.60;;;19.00;99.90;;;;;;7394929;19;20139;-75
2022/07/01 00:48:38;;;;;;;1.80;0.60;;;19.00;99.90;;;;;;7393193;19;20159;-75
2022/07/01 00:51:04;;;;;;;2.35;0.60;;;18.90;99.90;;;;;;7396331;19;20158;-76
2022/07/01 00:53:31;;;;;;;0.30;0.30;;;18.90;99.90;;;;;;7396712;19;20146;-77
2022/07/01 00:55:57;;;;;;;0.35;0.28;;;18.50;99.90;;;;;;7392978;19;20503;-76
2022/07/01 00:58:25;;;;;;;0.43;0.40;;;18.60;99.90;;;;;;7397904;19;20130;-75
2022/07/01 01:00:50;;;;;;;3.90;0.80;;;18.60;99.90;;;;;;7395993;19;20165;-76
2022/07/01 01:03:16;;;;;;;0.75;0.40;;;18.70;99.90;;;;;;7391757;19;20498;-76
2022/07/01 01:05:42;;;;;;;1.85;0.60;;;18.60;99.90;;;;;;7393404;19;20609;-75
2022/07/01 01:08:09;;;;;;;1.85;0.70;;;18.60;99.90;;;;;;7390279;19;20165;-77
2022/07/01 01:10:37;;;;;;;3.75;0.60;;;18.60;99.90;;;;;;7390650;19;20139;-75
2022/07/01 01:13:04;;;;;;;1.42;0.50;;;18.70;99.90;;;;;;7394993;19;20142;-75
2022/07/01 01:15:31;;;;;;;0.93;0.52;;;18.70;99.90;;;;;;7392352;19;20139;-75
2022/07/01 01:17:57;;;;;;;0.93;0.50;;;18.70;99.90;;;;;;7392730;19;20141;-75
2022/07/01 01:20:22;;;;;;;0.85;0.57;;;18.80;99.90;;;;;;7394007;19;20165;-76
2022/07/01 01:22:49;;;;;;;0.40;0.40;;;18.80;99.90;;;;;;7394720;19;20143;-76
2022/07/01 01:25:16;;;;;;;2.58;0.43;;;18.90;99.90;;;;;;7391862;19;20139;-75
2022/07/01 01:27:42;;;;;;;1.13;0.55;;;18.80;99.90;;;;;;7393667;19;20155;-75
2022/07/01 01:30:11;;;;;;;0.75;0.30;;;18.90;99.90;;;;;;7393002;19;20493;-75
2022/07/01 01:32:38;;;;;;;1.63;1.05;;;18.80;99.90;;;;;;7389122;19;20509;-76
2022/07/01 01:35:04;;;;;;;0.40;0.40;;;18.80;99.90;;;;;;7394055;19;20151;-75
2022/07/01 01:37:30;;;;;;;0.68;0.40;;;18.80;99.90;;;;;;7390304;19;20223;-76
2022/07/01 01:39:57;;;;;;;0.45;0.40;;;18.80;99.90;;;;;;7392779;19;20242;-75
2022/07/01 01:42:23;;;;;;;3.45;0.50;;;18.70;99.90;;;;;;7394672;19;20142;-75
2022/07/01 01:44:48;;;;;;;0.60;0.40;;;18.50;99.90;;;;;;7391908;19;20158;-75
2022/07/01 01:47:14;;;;;;;0.50;0.40;;;18.40;99.90;;;;;;7386968;19;20198;-76
2022/07/01 01:49:40;;;;;;;1.55;0.47;;;18.50;99.90;;;;;;7389374;19;20512;-75
2022/07/01 01:52:06;;;;;;;0.32;0.32;;;18.60;99.90;;;;;;7393320;19;20154;-76
2022/07/01 01:54:36;;;;;;;0.45;0.45;;;18.40;99.90;;;;;;7390360;19;20139;-75
2022/07/01 01:57:03;;;;;;;0.90;0.32;;;18.60;99.90;;;;;;7387840;19;20627;-75
2022/07/01 01:59:29;;;;;;;1.50;0.57;;;18.60;99.90;;;;;;7393365;19;20172;-76
2022/07/01 02:01:55;;;;;;;0.80;0.40;;;18.70;99.90;;;;;;7393929;19;20417;-76
2022/07/01 02:04:23;;;;;;;1.15;0.50;;;18.70;99.90;;;;;;7388138;19;20157;-76
2022/07/01 02:06:50;;;;;;;0.30;0.30;;;18.80;99.90;;;;;;7393564;19;20146;-76
2022/07/01 02:09:16;;;;;;;0.70;0.40;;;18.60;99.90;;;;;;7388990;19;20143;-76
2022/07/01 02:11:42;;;;;;;1.08;0.40;;;18.60;99.90;;;;;;7393644;19;20175;-75
2022/07/01 02:14:08;;;;;;;1.00;0.60;;;18.70;99.90;;;;;;7390916;19;20155;-76
2022/07/01 02:16:34;;;;;;;1.25;0.43;;;18.30;99.90;;;;;;7391858;19;20140;-75
2022/07/01 02:19:00;;;;;;;0.43;0.30;;;18.30;99.90;;;;;;7389105;19;20517;-76
2022/07/01 02:21:25;;;;;;;1.02;0.43;;;18.50;99.90;;;;;;7390047;19;20620;-75
2022/07/01 02:23:54;;;;;;;0.30;0.30;;;18.40;99.90;;;;;;7394197;19;20138;-75
2022/07/01 02:26:20;;;;;;;0.50;0.40;;;18.10;99.90;;;;;;7389054;19;20203;-76
2022/07/01 02:28:46;;;;;;;0.77;0.30;;;18.10;99.90;;;;;;7392018;19;20154;-75
2022/07/01 02:31:12;;;;;;;0.88;0.40;;;18.30;99.90;;;;;;7391146;19;20139;-75
2022/07/01 02:33:38;;;;;;;0.40;0.40;;;18.40;99.90;;;;;;7389466;19;20170;-75
2022/07/01 02:36:04;;;;;;;0.35;0.35;;;18.30;99.90;;;;;;7390959;19;20151;-75
2022/07/01 02:38:29;;;;;;;0.73;0.38;;;18.30;99.90;;;;;;7393301;19;20201;-75
2022/07/01 02:40:55;;;;;;;0.52;0.40;;;18.40;99.90;;;;;;7388691;19;20159;-76
2022/07/01 02:43:21;;;;;;;0.45;0.40;;;18.50;99.90;;;;;;7392447;19;20142;-74
2022/07/01 02:45:47;;;;;;;0.93;0.35;;;18.20;99.90;;;;;;7392412;19;20135;-75
2022/07/01 02:48:13;;;;;;;0.75;0.38;;;18.20;99.90;;;;;;7389313;19;20138;-75
2022/07/01 02:50:38;;;;;;;0.32;0.30;;;18.30;99.90;;;;;;7391072;19;20190;-74
2022/07/01 02:53:04;;;;;;;1.05;0.47;;;17.80;99.90;;;;;;7390772;19;20167;-74
2022/07/01 02:55:30;;;;;;;3.92;0.57;;;18.00;99.90;;;;;;7388922;19;20139;-74
2022/07/01 02:57:56;;;;;;;0.77;0.60;;;18.10;99.90;;;;;;7390887;19;20159;-75
2022/07/01 03:00:22;;;;;;;0.75;0.68;;;18.20;99.90;;;;;;7392924;19;20585;-75
2022/07/01 03:02:48;;;;;;;2.03;0.82;;;18.20;99.90;;;;;;7391641;19;20139;-75
2022/07/01 03:05:15;;;;;;;1.67;0.80;;;18.20;99.90;;;;;;7392709;19;20141;-75
2022/07/01 03:07:41;;;;;;;2.05;0.73;;;18.30;99.90;;;;;;7391834;19;20169;-75
2022/07/01 03:10:08;;;;;;;1.27;0.70;;;18.30;99.90;;;;;;7390956;19;20131;-74
2022/07/01 03:12:38;;;;;;;1.33;0.70;;;18.40;99.90;;;;;;7389238;19;20170;-75
2022/07/01 03:15:06;;;;;;;1.25;0.73;;;18.00;99.90;;;;;;7391346;19;20147;-75
2022/07/01 03:17:35;;;;;;;1.95;1.15;;;18.00;99.90;;;;;;7388919;19;20158;-75
2022/07/01 03:20:01;;;;;;;1.75;0.70;;;18.20;99.90;;;;;;7388474;19;20147;-75
2022/07/01 03:22:29;;;;;;;0.85;0.60;;;18.20;99.90;;;;;;7391268;19;20139;-74
2022/07/01 03:24:56;;;;;;;1.05;0.63;;;18.20;99.90;;;;;;7388622;19;20157;-74
2022/07/01 03:27:23;;;;;;;1.10;0.80;;;18.30;99.90;;;;;;7390723;19;20134;-74
2022/07/01 03:29:49;;;;;;;3.50;0.80;;;18.30;99.90;;;;;;7390239;19;20146;-74
2022/07/01 03:32:16;;;;;;;3.65;1.23;;;18.30;99.90;;;;;;7391175;19;20724;-75
2022/07/01 03:34:44;;;;;;;1.85;0.70;;;18.40;99.90;;;;;;7386366;19;20137;-74
2022/07/01 03:37:10;;;;;;;1.02;0.70;;;18.30;99.90;;;;;;7388856;19;20515;-74
2022/07/01 03:39:37;;;;;;;2.25;0.82;;;18.30;99.90;;;;;;7387528;19;20150;-75
2022/07/01 03:42:05;;;;;;;0.70;0.50;;;18.20;99.90;;;;;;7389014;19;20466;-74
2022/07/01 03:44:31;;;;;;;1.15;0.60;;;18.30;99.90;;;;;;7391482;19;20145;-74
2022/07/01 03:46:57;;;;;;;0.63;0.63;;;18.10;99.90;;;;;;7385033;19;20146;-75
2022/07/01 03:49:23;;;;;;;0.95;0.60;;;18.10;99.90;;;;;;7389573;19;20148;-73
2022/07/01 03:51:49;;;;;;;1.15;0.60;;;18.20;99.90;;;;;;7389173;19;20154;-75
2022/07/01 03:54:31;;;;;;;1.80;0.60;;;18.30;99.90;;;;;;7387200;19;20147;-75
2022/07/01 03:56:58;;;;;;;0.45;0.43;;;18.30;99.90;;;;;;7390630;19;20618;-74
2022/07/01 03:59:25;;;;;;;1.13;0.70;;;18.30;99.90;;;;;;7386009;19;20135;-73
2022/07/01 04:01:50;;;;;;;3.05;0.90;;;18.40;99.90;;;;;;7390033;19;20126;-75
2022/07/01 04:04:16;;;;;;;1.98;0.80;;;18.50;99.90;;;;;;7385549;19;20185;-75
2022/07/01 04:06:43;;;;;;;3.45;1.23;;;18.40;99.90;;;;;;7384932;19;20172;-75
2022/07/01 04:09:10;;;;;;;0.80;0.60;;;18.30;99.90;;;;;;7385756;19;20213;-75
2022/07/01 04:11:37;;;;;;;1.13;0.70;;;18.20;99.90;;;;;;7389831;19;20971;-75
2022/07/01 04:14:03;;;;;;;1.05;0.60;;;17.90;99.90;;;;;;7386936;19;20149;-75
2022/07/01 04:16:30;;;;;;;4.00;0.63;;;17.70;99.90;;;;;;7390052;19;20134;-75
2022/07/01 04:18:56;;;;;;;3.10;0.80;;;17.80;99.90;;;;;;7393950;19;20142;-73
2022/07/01 04:24:07;;;;;;;2.35;0.80;;;17.80;99.90;;;;;;7393052;19;20161;-75
2022/07/01 04:26:32;;;;;;;0.93;0.70;;;17.60;99.90;;;;;;7394144;19;20158;-74
2022/07/01 04:28:58;;;;;;;2.97;0.75;;;17.70;99.90;;;;;;7393087;19;20158;-75
2022/07/01 04:31:24;;;;;;;1.70;1.10;;;17.80;99.90;;;;;;7394966;19;20159;-75
2022/07/01 04:33:50;;;;;;;1.48;0.82;;;17.90;99.90;;;;;;7394222;19;20820;-75
2022/07/01 04:36:17;;;;;;;1.52;0.80;;;17.90;99.90;;;;;;7394566;19;20178;-74
2022/07/01 04:38:42;;;;;;;1.30;0.90;;;17.90;99.90;;;;;;7398986;19;20813;-75
2022/07/01 04:43:53;;;;;;;0.60;0.55;;;18.00;99.90;;;;;;7392951;19;20493;-74
2022/07/01 04:46:18;;;;;;;1.95;0.60;;;18.10;99.90;;;;;;7393211;19;20150;-74
2022/07/01 04:48:44;;;;;;;1.02;0.60;;;18.10;99.90;;;;;;7391953;19;20681;-74
2022/07/01 04:51:10;;;;;;;1.75;0.60;;;18.10;99.90;;;;;;7394774;19;20629;-75
2022/07/01 04:53:36;;;;;;;0.40;0.40;;;17.80;99.90;;;;;;7392248;19;20143;-75
2022/07/01 04:56:02;;;;;;;1.63;0.60;;;17.90;99.90;;;;;;7394321;19;20166;-74
2022/07/01 04:58:27;;;;;;;1.40;0.70;;;17.90;99.90;;;;;;7395518;19;20162;-74
2022/07/01 05:00:53;;;;;;;1.45;0.50;;;17.70;99.90;;;;;;7391687;19;20681;-75
2022/07/01 05:03:19;;;;;;;0.57;0.50;;;17.60;99.90;;;;;;7393505;19;20201;-78
2022/07/01 05:05:45;;;;;;;0.60;0.60;;;17.80;99.90;;;;;;7394609;19;20138;-77
2022/07/01 05:08:10;;;;;;;1.55;0.70;;;17.90;99.90;;;;;;7392042;19;20970;-77
2022/07/01 05:10:36;;;;;;;2.03;0.70;;;17.80;99.90;;;;;;7397044;19;20130;-75
2022/07/01 05:13:03;;;;;;;1.20;0.70;;;17.80;99.90;;;;;;7396716;19;20135;-75
2022/07/01 05:15:29;;;;;;;1.40;0.70;;;17.80;99.90;;;;;;7395791;19;20165;-75
2022/07/01 05:23:24;;;;;;;1.85;0.90;;;17.60;99.90;;;;;;7397408;19;20135;-75
2022/07/01 05:25:49;;;;;;;1.00;0.63;;;17.70;99.90;;;;;;7393591;19;20143;-76
2022/07/01 05:28:15;;;;;;;3.15;1.27;;;17.70;99.90;;;;;;7394029;19;20145;-77
2022/07/01 05:30:41;;;;;;;1.38;0.70;;;17.70;99.90;;;;;;7393872;19;20609;-77
2022/07/01 05:33:07;;;;;;;1.67;0.82;;;17.60;99.90;;;;;;7392668;19;20131;-78
2022/07/01 05:35:32;;;;;;;1.65;0.93;;;17.60;99.90;;;;;;7394343;19;20617;-75
2022/07/01 05:37:58;;;;;;;2.20;0.98;;;17.60;99.90;;;;;;7395567;19;20628;-76
2022/07/01 05:40:25;;;;;;;2.20;1.00;;;17.60;99.90;;;;;;7392229;19;20154;-76
2022/07/01 05:42:52;;;;;;;0.75;0.70;;;17.70;99.90;;;;;;7391954;19;20138;-76
2022/07/01 05:45:18;;;;;;;2.03;1.15;;;17.70;99.90;;;;;;7394133;19;20134;-75
2022/07/01 05:47:44;;;;;;;1.63;1.08;;;17.70;99.90;;;;;;7385956;19;20150;-76
2022/07/01 05:50:09;;;;;;;2.00;1.38;;;17.80;99.90;;;;;;7392489;19;20130;-77
2022/07/01 05:52:35;;;;;;;1.83;1.10;;;17.80;99.90;;;;;;7391305;19;20220;-77
2022/07/01 05:55:01;;;;;;;2.33;1.13;;;17.60;99.90;;;;;;7394916;19;20161;-77
2022/07/01 05:57:27;;;;;;;1.75;1.00;;;17.70;99.90;;;;;;7393267;19;20134;-77
2022/07/01 05:59:53;;;;;;;2.33;1.63;;;17.70;99.90;;;;;;7394132;19;20146;-75
2022/07/01 06:02:19;;;;;;;2.28;1.55;;;17.80;99.90;;;;;;7388588;19;20165;-76
2022/07/01 06:04:45;;;;;;;1.42;1.13;;;17.80;99.90;;;;;;7392027;19;20680;-76
2022/07/01 06:07:10;;;;;;;1.88;1.42;;;17.90;99.90;;;;;;7386725;19;20144;-75
2022/07/01 06:09:37;;;;;;;2.08;1.30;;;17.80;99.90;;;;;;7389141;19;20173;-75
2022/07/01 06:12:04;;;;;;;2.85;1.40;;;17.90;99.90;;;;;;7389714;19;20153;-75
2022/07/01 06:14:30;;;;;;;3.95;1.60;;;17.90;99.90;;;;;;7394820;19;20130;-77
2022/07/01 06:16:56;;;;;;;2.88;1.35;;;17.80;99.90;;;;;;7390596;19;20638;-75
2022/07/01 06:19:21;;;;;;;3.25;1.50;;;17.90;99.90;;;;;;7390241;19;20166;-76
2022/07/01 06:21:47;;;;;;;2.60;1.20;;;17.90;99.90;;;;;;7388144;19;20492;-76
2022/07/01 06:24:13;;;;;;;1.95;1.23;;;17.90;99.90;;;;;;7391169;19;20604;-77
2022/07/01 06:26:39;;;;;;;2.00;1.17;;;17.80;99.90;;;;;;7389721;19;20161;-76
2022/07/01 06:29:05;;;;;;;2.03;1.20;;;17.70;99.90;;;;;;7388302;19;20151;-75
2022/07/01 06:31:33;;;;;;;2.00;1.10;;;17.70;99.90;;;;;;7392029;19;20151;-76
2022/07/01 06:34:00;;;;;;;1.23;1.10;;;17.50;99.90;;;;;;7389938;19;20162;-76
2022/07/01 06:36:25;;;;;;;1.40;1.17;;;17.60;99.90;;;;;;7385493;19;20144;-76
2022/07/01 06:38:51;;;;;;;1.10;1.00;;;17.70;99.90;;;;;;7392246;19;20138;-74
2022/07/01 06:41:26;;;;;;;2.88;1.15;;;17.90;99.90;;;;;;7392198;19;20151;-76
2022/07/01 06:43:56;;;;;;;1.73;0.98;;;17.80;99.90;;;;;;7387571;19;20145;-76
2022/07/01 06:46:23;;;;;;;2.08;1.00;;;17.70;99.90;;;;;;7386962;19;20214;-76
2022/07/01 06:48:48;;;;;;;1.75;1.30;;;17.70;99.90;;;;;;7387852;19;20602;-76
2022/07/01 06:51:14;;;;;;;2.30;1.40;;;17.80;99.90;;;;;;7389236;19;20134;-76
2022/07/01 06:53:40;;;;;;;1.98;1.30;;;17.80;99.90;;;;;;7391749;19;20492;-77
2022/07/01 06:56:06;;;;;;;1.25;0.90;;;17.70;99.90;;;;;;7387234;19;20217;-76
2022/07/01 06:58:32;;;;;;;4.05;1.15;;;17.80;99.90;;;;;;7387728;19;20181;-76
2022/07/01 07:00:58;;;;;;;1.50;1.00;;;17.80;99.90;;;;;;7386813;19;20177;-76
2022/07/01 07:03:24;;;;;;;1.10;0.90;;;17.70;99.90;;;;;;7391925;19;20147;-76
2022/07/01 07:05:52;;;;;;;1.38;1.00;;;17.80;99.90;;;;;;7393637;19;20154;-75
2022/07/01 07:08:19;;;;;;;1.30;1.00;;;17.90;99.90;;;;;;7387199;19;20142;-76
2022/07/01 07:10:46;;;;;;;2.20;1.33;;;17.80;99.90;;;;;;7388005;19;20566;-76
2022/07/01 07:13:12;;;;;;;2.33;0.90;;;17.80;99.90;;;;;;7396414;19;20202;-76
2022/07/01 07:15:41;;;;;;;2.78;1.88;;;17.90;99.90;;;;;;7387619;19;20680;-76
2022/07/01 07:18:07;;;;;;;2.38;1.45;;;17.60;99.90;;;;;;7387088;19;20155;-76
2022/07/01 07:20:34;;;;;;;2.33;1.13;;;17.70;99.90;;;;;;7385723;19;20151;-75
2022/07/01 07:23:00;;;;;;;2.08;1.45;;;17.90;99.90;;;;;;7389664;19;20605;-76
2022/07/01 07:25:26;;;;;;;1.48;1.20;;;17.70;99.90;;;;;;7388606;19;20146;-76
2022/07/01 07:27:52;;;;;;;2.85;1.25;;;17.80;99.90;;;;;;7389340;19;20137;-76
2022/07/01 07:30:18;;;;;;;1.10;0.93;;;17.60;99.90;;;;;;7397432;19;20130;-77
2022/07/01 07:32:44;;;;;;;1.55;1.30;;;17.80;99.90;;;;;;7385428;19;20153;-77
2022/07/01 07:35:11;;;;;;;2.60;1.20;;;17.90;99.90;;;;;;7386937;19;20147;-76
2022/07/01 07:37:37;;;;;;;2.33;1.10;;;17.80;99.90;;;;;;7385741;19;20146;-76
2022/07/01 07:40:06;;;;;;;2.95;1.08;;;17.60;99.90;;;;;;7386755;19;20131;-76
2022/07/01 07:42:32;;;;;;;2.17;1.20;;;17.70;99.90;;;;;;7387567;19;20146;-76
2022/07/01 07:44:58;;;;;;;1.23;0.90;;;17.70;99.90;;;;;;7388156;19;20134;-76
2022/07/01 07:47:24;;;;;;;5.05;3.17;;;17.90;99.90;;;;;;7386402;19;20150;-76
2022/07/01 07:49:50;;;;;;;2.78;1.40;;;17.80;99.90;;;;;;7386434;19;20154;-77
2022/07/01 07:52:15;;;;;;;1.88;1.10;;;17.80;99.90;;;;;;7386595;19;20139;-75
2022/07/01 07:54:41;;;;;;;1.80;1.17;;;17.80;99.90;;;;;;7390972;19;20141;-75
2022/07/01 07:57:07;;;;;;;1.48;1.17;;;17.80;99.90;;;;;;7386810;19;20147;-76
2022/07/01 07:59:34;;;;;;;1.20;1.05;;;17.90;99.90;;;;;;7385971;19;20131;-76
2022/07/01 08:02:00;;;;;;;1.58;1.10;;;17.90;99.90;;;;;;7393695;19;20133;-76
2022/07/01 08:04:26;;;;;;;2.22;1.38;;;17.90;99.90;;;;;;7385806;19;20174;-74
2022/07/01 08:06:52;;;;;;;1.23;1.10;;;17.90;99.90;;;;;;7387433;19;20155;-75
2022/07/01 08:09:18;;;;;;;2.25;1.83;;;17.90;99.90;;;;;;7385176;19;20143;-76
2022/07/01 08:11:44;;;;;;;1.55;1.40;;;17.80;99.90;;;;;;7387584;19;20172;-76
2022/07/01 08:14:10;;;;;;;2.20;1.35;;;17.70;99.90;;;;;;7386512;19;20138;-76
2022/07/01 08:16:36;;;;;;;4.03;1.67;;;17.80;99.90;;;;;;7389265;19;20155;-76
2022/07/01 08:19:02;;;;;;;2.20;1.23;;;17.80;99.90;;;;;;7385824;19;20160;-75
2022/07/01 08:21:29;;;;;;;2.47;1.35;;;18.00;99.90;;;;;;7381402;19;20194;-76
2022/07/01 08:23:55;;;;;;;1.83;0.98;;;17.90;99.90;;;;;;7384615;19;20151;-74
2022/07/01 08:26:21;;;;;;;2.35;1.20;;;18.00;99.90;;;;;;7388930;19;20139;-75
2022/07/01 08:28:47;;;;;;;6.80;1.25;;;17.90;99.90;;;;;;7383937;19;20143;-75
2022/07/01 08:31:13;;;;;;;1.80;1.17;;;17.80;99.90;;;;;;7386403;19;20214;-76
2022/07/01 08:33:40;;;;;;;3.30;1.60;;;17.80;99.90;;;;;;7387526;19;20594;-76
2022/07/01 08:36:08;;;;;;;3.75;1.92;;;17.80;99.90;;;;;;7386195;19;20153;-74
2022/07/01 08:38:35;;;;;;;2.22;1.48;;;17.80;99.90;;;;;;7388687;19;20146;-76
2022/07/01 08:41:01;;;;;;;2.88;1.17;;;17.90;99.90;;;;;;7388886;19;20142;-75
2022/07/01 08:43:28;;;;;;;1.88;1.30;;;17.90;99.90;;;;;;7390863;19;20127;-76
2022/07/01 08:45:54;;;;;;;2.22;1.50;;;18.00;99.90;;;;;;7396525;19;20649;-75
2022/07/01 08:48:20;;;;;;;5.57;2.38;;;17.90;99.90;;;;;;7389558;19;20495;-76
2022/07/01 08:50:46;;;;;;;2.75;2.03;;;17.90;99.90;;;;;;7382993;19;20147;-76
2022/07/01 08:53:12;;;;;;;3.72;1.30;;;17.90;99.90;;;;;;7386489;19;20177;-75
2022/07/01 08:58:25;;;;;;;33.08;3.55;;;18.00;99.90;;;;;;7388646;19;20139;-76
2022/07/01 09:00:51;;;;;;;18.45;2.10;;;18.10;99.90;;;;;;7383443;19;20142;-76
2022/07/01 09:03:21;;;;;;;4.38;1.40;;;18.20;99.90;;;;;;7383772;19;20150;-75
2022/07/01 09:05:52;;;;;;;3.00;0.90;;;18.10;99.90;;;;;;7391103;19;20161;-75
2022/07/01 09:08:18;;;;;;;2.25;1.08;;;18.10;99.90;;;;;;7390461;19;20218;-75
2022/07/01 09:10:44;;;;;;;5.20;1.15;;;18.00;99.90;;;;;;7392576;19;20154;-75
2022/07/01 09:13:12;;;;;;;1.48;1.08;;;18.00;99.90;;;;;;7393389;19;20206;-76
2022/07/01 09:15:40;;;;;;;2.55;1.40;;;18.10;99.90;;;;;;7392982;19;20175;-75
2022/07/01 09:18:14;;;;;;;2.40;1.10;;;18.00;99.90;;;;;;7392905;19;20130;-76
2022/07/01 09:20:44;;;;;;;1.25;1.10;;;18.00;99.90;;;;;;7392616;19;20230;-75
2022/07/01 09:23:13;;;;;;;3.42;1.30;;;17.90;99.90;;;;;;7388735;19;20171;-75
2022/07/01 09:25:45;;;;;;;1.40;1.20;;;17.90;99.90;;;;;;7391474;19;20601;-76
2022/07/01 09:28:22;;;;;;;2.33;1.20;;;18.00;99.90;;;;;;7389049;19;20712;-75
2022/07/01 09:30:57;;;;;;;2.30;1.13;;;17.90;99.90;;;;;;7392506;19;20154;-76
2022/07/01 09:33:28;;;;;;;2.17;1.65;;;17.70;99.90;;;;;;7402789;19;20145;-76
2022/07/01 09:35:55;;;;;;;3.85;1.30;;;17.80;99.90;;;;;;7391324;19;20151;-76
2022/07/01 09:38:23;;;;;;;3.58;1.17;;;17.70;99.90;;;;;;7391400;19;20177;-75
2022/07/01 09:40:57;;;;;;;1.40;1.00;;;17.70;99.90;;;;;;7393384;19;20622;-76
2022/07/01 09:43:26;;;;;;;3.75;1.20;;;17.70;99.90;;;;;;7391831;19;20149;-76
2022/07/01 09:45:57;;;;;;;0.95;0.73;;;17.70;99.90;;;;;;7393835;19;20146;-74
2022/07/01 09:48:25;;;;;;;2.60;1.10;;;17.70;99.90;;;;;;7394908;19;20142;-76
2022/07/01 09:50:51;;;;;;;1.40;0.80;;;17.70;99.90;;;;;;7389779;19;20143;-75
2022/07/01 09:53:17;;;;;;;2.25;0.90;;;17.70;99.90;;;;;;7393817;19;20214;-76
2022/07/01 09:55:43;;;;;;;1.35;0.80;;;17.70;99.90;;;;;;7390900;19;20226;-76
2022/07/01 09:58:09;;;;;;;3.83;1.20;;;17.80;99.90;;;;;;7390159;19;20150;-76
2022/07/01 10:00:36;;;;;;;1.77;1.05;;;17.90;99.90;;;;;;7394387;19;20127;-75
2022/07/01 10:03:06;;;;;;;1.60;1.20;;;17.80;99.90;;;;;;7394588;19;20151;-73
2022/07/01 10:05:37;;;;;;;4.40;1.67;;;17.80;99.90;;;;;;7395064;19;20131;-75
2022/07/01 10:08:32;;;;;;;3.50;2.10;;;17.80;99.90;;;;;;7392504;19;20150;-76
2022/07/01 10:11:39;;;;;;;2.20;1.27;;;17.90;99.90;;;;;;7391979;19;20228;-75
2022/07/01 10:14:07;;;;;;;1.40;1.15;;;18.00;99.90;;;;;;7393167;19;20150;-75
2022/07/01 10:16:35;;;;;;;1.15;1.00;;;17.90;99.90;;;;;;7389202;19;20131;-75
2022/07/01 10:19:26;;;;;;;1.70;1.25;;;18.00;99.90;;;;;;7391014;19;20154;-75
2022/07/01 10:21:56;;;;;;;2.00;1.20;;;18.00;99.90;;;;;;7389719;19;20154;-75
2022/07/01 10:24:24;;;;;;;1.70;1.08;;;18.00;99.90;;;;;;7389215;19;20139;-76
2022/07/01 10:26:50;;;;;;;0.80;0.80;;;18.00;99.90;;;;;;7392251;19;20143;-75
2022/07/01 10:29:31;;;;;;;1.83;0.85;;;18.10;99.90;;;;;;7388755;19;20142;-74
2022/07/01 10:32:21;;;;;;;1.50;1.08;;;18.20;99.90;;;;;;7392035;19;20162;-75
2022/07/01 10:34:47;;;;;;;1.90;1.02;;;18.30;99.90;;;;;;7391609;19;20146;-74
2022/07/01 10:37:13;;;;;;;1.23;0.90;;;18.20;99.90;;;;;;7391305;19;20143;-75
2022/07/01 10:39:54;;;;;;;1.63;1.40;;;18.20;99.90;;;;;;7385924;19;20217;-75
2022/07/01 10:42:20;;;;;;;1.05;0.93;;;18.40;99.90;;;;;;7394945;19;20153;-76
2022/07/01 10:45:03;;;;;;;1.10;1.00;;;18.50;99.90;;;;;;7392817;19;20127;-75
2022/07/01 10:47:29;;;;;;;2.08;1.42;;;18.60;99.90;;;;;;7389366;19;20179;-75
2022/07/01 10:50:00;;;;;;;2.53;1.75;;;18.80;99.90;;;;;;7394858;19;20145;-75
2022/07/01 10:52:26;;;;;;;2.28;1.48;;;18.80;99.90;;;;;;7388293;19;20498;-77
2022/07/01 10:54:55;;;;;;;1.15;0.98;;;19.00;99.90;;;;;;7388951;19;20619;-76
2022/07/01 10:57:31;;;;;;;4.10;2.92;;;19.00;99.90;;;;;;7387696;19;20154;-75
2022/07/01 11:00:00;;;;;;;2.10;0.90;;;19.00;99.90;;;;;;7387535;19;20968;-75
2022/07/01 11:02:31;;;;;;;1.85;0.80;;;18.90;99.90;;;;;;7389236;19;20153;-75
2022/07/01 11:05:00;;;;;;;1.17;0.90;;;19.00;99.90;;;;;;7386492;19;20208;-75
2022/07/01 11:07:35;;;;;;;2.03;1.20;;;19.00;99.90;;;;;;7390444;19;20476;-76
2022/07/01 11:10:03;;;;;;;1.73;1.10;;;19.00;99.90;;;;;;7392385;19;20138;-75
2022/07/01 11:12:29;;;;;;;3.40;0.90;;;19.00;99.90;;;;;;7390673;19;20170;-76
2022/07/01 11:15:01;;;;;;;1.02;0.80;;;18.90;99.90;;;;;;7394463;19;20489;-75
2022/07/01 11:17:28;;;;;;;1.58;0.90;;;18.80;99.90;;;;;;7389322;19;20147;-75
2022/07/01 11:19:57;;;;;;;1.42;0.93;;;18.70;99.90;;;;;;7390284;19;20157;-74
2022/07/01 11:22:26;;;;;;;1.45;1.08;;;18.70;99.90;;;;;;7390181;19;20498;-76
2022/07/01 11:24:59;;;;;;;0.90;0.80;;;18.80;99.90;;;;;;7387476;19;20173;-76
2022/07/01 11:27:27;;;;;;;2.20;0.90;;;18.90;99.90;;;;;;7380636;19;20134;-74
2022/07/01 11:29:57;;;;;;;0.93;0.82;;;18.90;99.90;;;;;;7386881;19;20139;-76
2022/07/01 11:32:37;;;;;;;0.90;0.60;;;18.80;99.90;;;;;;7389432;19;20168;-76
2022/07/01 11:39:21;;;;;;;0.95;0.75;;;18.80;99.90;;;;;;7388686;19;20146;-75
2022/07/01 11:40:36;;;;;;;3.38;1.40;;;18.80;99.90;;;;;;7384754;19;20594;-75
2022/07/01 11:43:17;;;;;;;3.05;0.90;;;18.80;99.90;;;;;;7385519;19;20210;-77
2022/07/01 11:45:43;;;;;;;1.17;0.80;;;18.90;99.90;;;;;;7386634;19;20146;-75
2022/07/01 11:48:09;;;;;;;1.65;1.10;;;19.00;99.90;;;;;;7388335;19;20482;-75
2022/07/01 11:50:35;;;;;;;1.33;0.68;;;19.10;99.90;;;;;;7384720;19;20246;-75
2022/07/01 11:53:00;;;;;;;2.30;1.25;;;19.30;99.90;;;;;;7385149;19;20140;-75
2022/07/01 11:55:26;;;;;;;0.93;0.70;;;19.60;99.90;;;;;;7391487;19;20150;-74
2022/07/01 11:57:52;;;;;;;1.05;0.77;;;19.80;99.90;;;;;;7388242;19;20169;-74
2022/07/01 12:00:18;;;;;;;1.05;0.82;;;19.80;99.90;;;;;;7386651;19;20500;-76
2022/07/01 12:02:48;;;;;;;1.42;0.90;;;19.90;99.90;;;;;;7387260;19;20230;-75
2022/07/01 12:05:14;;;;;;;1.67;0.93;;;19.90;99.90;;;;;;7390570;19;20154;-74
2022/07/01 12:07:40;;;;;;;0.85;0.77;;;19.90;99.90;;;;;;7386549;19;20605;-76
2022/07/01 12:10:07;;;;;;;1.20;0.90;;;19.90;99.90;;;;;;7386857;19;20158;-75
2022/07/01 12:12:33;;;;;;;1.35;0.68;;;20.10;99.90;;;;;;7383872;19;20145;-76
2022/07/01 12:14:59;;;;;;;4.68;0.80;;;20.60;99.90;;;;;;7388300;19;20214;-73
2022/07/01 12:17:27;;;;;;;1.77;0.98;;;20.70;99.90;;;;;;7390691;19;20126;-73
2022/07/01 12:19:54;;;;;;;1.40;0.77;;;20.80;99.90;;;;;;7387352;19;20135;-75
2022/07/01 12:22:26;;;;;;;1.42;0.68;;;20.80;99.90;;;;;;7385346;19;20149;-77
2022/07/01 12:25:04;;;;;;;1.50;0.60;;;20.90;99.90;;;;;;7383261;19;20594;-76
2022/07/01 12:27:33;;;;;;;1.48;0.85;;;20.80;99.90;;;;;;7385974;19;20251;-76
2022/07/01 12:29:59;;;;;;;1.63;0.63;;;20.60;99.90;;;;;;7384632;19;20167;-73
2022/07/01 12:32:28;;;;;;;0.70;0.63;;;20.40;99.90;;;;;;7384738;19;20135;-74
2022/07/01 12:35:01;;;;;;;1.58;0.90;;;20.60;99.90;;;;;;7385841;19;20509;-74
2022/07/01 12:37:34;;;;;;;1.05;0.60;;;20.30;99.90;;;;;;7390112;19;20138;-75
2022/07/01 12:40:19;;;;;;;1.73;0.80;;;20.40;99.90;;;;;;7389816;19;20153;-74
2022/07/01 12:42:45;;;;;;;1.00;0.70;;;20.40;99.90;;;;;;7393338;19;20148;-72
2022/07/01 12:45:14;;;;;;;1.55;0.80;;;20.20;99.90;;;;;;7395087;19;20173;-76
2022/07/01 12:47:40;;;;;;;0.60;0.60;;;20.10;99.90;;;;;;7393961;19;20142;-74
2022/07/01 12:50:24;;;;;;;0.70;0.70;;;20.00;99.90;;;;;;7390683;19;20473;-75
2022/07/01 12:53:04;;;;;;;1.00;0.90;;;19.60;99.90;;;;;;7392961;19;20793;-75
2022/07/01 12:55:44;;;;;;;3.92;0.82;;;19.60;99.90;;;;;;7394535;19;20613;-74
2022/07/01 12:58:22;;;;;;;0.95;0.82;;;19.80;99.90;;;;;;7392426;19;20130;-76
2022/07/01 13:00:50;;;;;;;3.08;1.05;;;19.50;99.90;;;;;;7391749;19;20140;-75
2022/07/01 13:03:22;;;;;;;2.42;0.95;;;19.70;99.90;;;;;;7390006;19;20641;-73
2022/07/01 13:05:49;;;;;;;1.92;1.10;;;19.70;99.90;;;;;;7398147;19;20701;-76
2022/07/01 13:08:17;;;;;;;2.00;1.23;;;19.70;99.90;;;;;;7391632;19;20544;-76